createdAt,value
2023-03-12T00:01:23.946Z,91.00
2023-03-12T00:03:51.026Z,91.10
2023-03-12T00:06:21.951Z,91.20
2023-03-12T00:08:55.891Z,91.20
2023-03-12T00:11:23.774Z,91.20
2023-03-12T00:13:54.809Z,91.20
2023-03-12T00:16:24.164Z,91.30
2023-03-12T00:18:54.888Z,91.30
2023-03-12T00:21:24.190Z,91.30
2023-03-12T00:23:53.929Z,91.30
2023-03-12T00:26:21.913Z,91.40
2023-03-12T00:28:50.882Z,91.40
2023-03-12T00:31:23.232Z,91.40
2023-03-12T00:33:51.814Z,91.40
2023-03-12T00:36:27.324Z,91.40
2023-03-12T00:38:57.036Z,91.40
2023-03-12T00:41:24.787Z,91.40
2023-03-12T00:43:55.491Z,91.30
2023-03-12T00:46:27.625Z,91.20
2023-03-12T00:48:58.736Z,91.30
2023-03-12T00:51:29.567Z,91.20
2023-03-12T00:53:58.600Z,91.10
2023-03-12T00:56:28.188Z,91.10
2023-03-12T00:58:58.929Z,91.00
2023-03-12T01:01:28.007Z,91.00
2023-03-12T01:03:56.001Z,90.90
2023-03-12T01:06:24.649Z,90.80
2023-03-12T01:08:56.695Z,90.80
2023-03-12T01:11:28.676Z,90.80
2023-03-12T01:13:56.815Z,90.70
2023-03-12T01:16:28.523Z,90.70
2023-03-12T01:18:59.523Z,90.70
2023-03-12T01:21:32.842Z,90.60
2023-03-12T01:24:05.806Z,90.60
2023-03-12T01:26:42.343Z,90.50
2023-03-12T01:29:10.766Z,90.50
2023-03-12T01:31:45.697Z,90.50
2023-03-12T01:34:15.467Z,90.50
2023-03-12T01:36:46.270Z,90.50
2023-03-12T01:39:14.741Z,90.40
2023-03-12T01:41:43.397Z,90.40
2023-03-12T01:44:16.982Z,90.40
2023-03-12T01:46:46.454Z,90.30
2023-03-12T01:49:35.496Z,90.30
2023-03-12T01:52:06.667Z,90.20
2023-03-12T01:55:15.680Z,90.20
2023-03-12T01:57:56.214Z,90.10
2023-03-12T02:00:27.776Z,90.10
2023-03-12T02:03:03.335Z,90.10
2023-03-12T02:05:44.822Z,90.10
2023-03-12T02:08:17.127Z,90.10
2023-03-12T02:10:47.892Z,90.00
2023-03-12T02:13:20.778Z,90.00
2023-03-12T02:15:52.153Z,90.10
2023-03-12T02:18:24.483Z,90.00
2023-03-12T02:20:59.783Z,90.10
2023-03-12T02:23:35.315Z,90.10
2023-03-12T02:26:06.058Z,90.10
2023-03-12T02:28:45.927Z,90.10
2023-03-12T02:31:27.645Z,90.20
2023-03-12T02:34:04.164Z,90.30
2023-03-12T02:36:34.937Z,90.30
2023-03-12T02:39:05.051Z,90.30
2023-03-12T02:41:49.216Z,90.30
2023-03-12T02:44:26.520Z,90.10
2023-03-12T02:46:59.479Z,89.70
2023-03-12T02:49:32.897Z,89.00
2023-03-12T02:52:05.171Z,88.50
2023-03-12T02:54:34.965Z,87.90
2023-03-12T02:57:03.018Z,87.70
2023-03-12T02:59:33.384Z,87.50
2023-03-12T03:02:06.989Z,87.30
2023-03-12T03:04:43.226Z,87.20
2023-03-12T03:07:15.267Z,87.20
2023-03-12T03:09:45.479Z,87.30
2023-03-12T03:12:19.276Z,87.40
2023-03-12T03:14:52.167Z,87.60
2023-03-12T03:17:19.969Z,87.60
2023-03-12T03:19:50.174Z,87.60
2023-03-12T03:22:21.774Z,87.50
2023-03-12T03:24:53.038Z,87.40
2023-03-12T03:27:23.586Z,87.50
2023-03-12T03:29:53.125Z,87.50
2023-03-12T03:32:28.804Z,87.60
2023-03-12T03:35:01.789Z,87.80
2023-03-12T03:37:31.388Z,88.10
2023-03-12T03:39:58.638Z,88.10
2023-03-12T03:42:25.855Z,88.30
2023-03-12T03:44:53.984Z,88.40
2023-03-12T03:47:25.082Z,88.50
2023-03-12T03:49:53.473Z,88.40
2023-03-12T03:52:23.726Z,88.50
2023-03-12T03:54:51.939Z,88.50
2023-03-12T03:57:20.292Z,88.60
2023-03-12T03:59:49.250Z,88.70
2023-03-12T04:02:16.506Z,88.70
2023-03-12T04:04:45.614Z,88.50
2023-03-12T04:07:12.961Z,88.50
2023-03-12T04:09:45.222Z,88.30
2023-03-12T04:12:12.841Z,88.20
2023-03-12T04:14:45.488Z,88.10
2023-03-12T04:17:14.195Z,87.90
2023-03-12T04:19:44.446Z,87.80
2023-03-12T04:22:13.688Z,87.80
2023-03-12T04:24:46.890Z,87.80
2023-03-12T04:27:15.983Z,87.70
2023-03-12T04:29:46.354Z,87.60
2023-03-12T04:32:13.690Z,87.50
2023-03-12T04:34:40.493Z,87.40
2023-03-12T04:37:15.901Z,87.30
2023-03-12T04:39:47.356Z,87.10
2023-03-12T04:42:15.633Z,87.30
2023-03-12T04:44:46.439Z,87.20
2023-03-12T04:47:13.254Z,87.10
2023-03-12T04:49:40.538Z,86.90
2023-03-12T04:52:07.525Z,86.80
2023-03-12T04:54:35.601Z,86.60
2023-03-12T04:57:05.507Z,86.50
2023-03-12T04:59:32.655Z,86.40
2023-03-12T05:02:00.138Z,86.30
2023-03-12T05:04:29.756Z,86.30
2023-03-12T05:06:57.900Z,86.20
2023-03-12T05:09:27.664Z,86.10
2023-03-12T05:11:55.347Z,86.10
2023-03-12T05:14:23.339Z,86.20
2023-03-12T05:16:53.474Z,85.90
2023-03-12T05:19:21.115Z,85.60
2023-03-12T05:21:48.667Z,85.00
2023-03-12T05:24:16.333Z,83.90
2023-03-12T05:26:46.288Z,83.60
2023-03-12T05:29:17.353Z,83.30
2023-03-12T05:31:44.846Z,83.30
2023-03-12T05:34:13.428Z,83.10
2023-03-12T05:36:42.813Z,83.10
2023-03-12T05:39:12.446Z,83.70
2023-03-12T05:41:40.101Z,83.00
2023-03-12T05:44:14.303Z,83.00
2023-03-12T05:46:43.890Z,82.80
2023-03-12T05:49:12.866Z,82.80
2023-03-12T05:51:43.915Z,82.60
2023-03-12T05:54:14.745Z,82.40
2023-03-12T05:56:43.858Z,81.70
2023-03-12T05:59:14.172Z,81.20
2023-03-12T06:01:45.472Z,81.00
2023-03-12T06:04:12.949Z,81.10
2023-03-12T06:06:39.947Z,81.10
2023-03-12T06:09:08.749Z,81.40
2023-03-12T06:11:39.330Z,81.30
2023-03-12T06:14:06.450Z,81.50
2023-03-12T06:16:39.461Z,81.40
2023-03-12T06:19:08.641Z,81.20
2023-03-12T06:21:38.170Z,80.90
2023-03-12T06:24:09.215Z,81.20
2023-03-12T06:26:52.055Z,81.00
2023-03-12T06:29:20.938Z,81.20
2023-03-12T06:31:53.026Z,81.40
2023-03-12T06:34:22.116Z,81.50
2023-03-12T06:36:52.802Z,81.40
2023-03-12T06:39:22.075Z,81.70
2023-03-12T06:42:00.030Z,81.60
2023-03-12T06:44:37.357Z,81.60
2023-03-12T06:47:12.052Z,81.50
2023-03-12T06:49:39.269Z,81.60
2023-03-12T06:52:14.123Z,81.90
2023-03-12T06:54:42.203Z,82.00
2023-03-12T06:57:14.004Z,82.10
2023-03-12T06:59:50.525Z,82.10
2023-03-12T07:02:20.285Z,81.30
2023-03-12T07:04:47.183Z,80.40
2023-03-12T07:07:14.323Z,79.30
2023-03-12T07:09:43.349Z,78.10
2023-03-12T07:12:11.427Z,78.00
2023-03-12T07:14:38.937Z,77.80
2023-03-12T07:17:06.187Z,77.60
2023-03-12T07:19:33.058Z,77.60
2023-03-12T07:22:02.438Z,77.10
2023-03-12T07:24:29.716Z,76.90
2023-03-12T07:26:59.322Z,77.00
2023-03-12T07:29:26.520Z,76.40
2023-03-12T07:31:55.790Z,75.80
2023-03-12T07:34:25.185Z,75.60
2023-03-12T07:36:55.266Z,75.60
2023-03-12T07:39:22.648Z,75.80
2023-03-12T07:41:50.393Z,76.60
2023-03-12T07:44:17.291Z,77.20
2023-03-12T07:46:44.614Z,77.20
2023-03-12T07:49:11.608Z,76.30
2023-03-12T07:51:38.808Z,76.10
2023-03-12T07:54:06.286Z,76.00
2023-03-12T07:56:35.058Z,75.60
2023-03-12T07:59:03.149Z,75.60
2023-03-12T08:01:33.016Z,75.30
2023-03-12T08:04:02.932Z,75.10
2023-03-12T08:06:32.490Z,75.20
2023-03-12T08:08:59.730Z,75.20
2023-03-12T08:11:30.501Z,75.50
2023-03-12T08:13:57.341Z,75.20
2023-03-12T08:16:24.487Z,75.00
2023-03-12T08:18:51.671Z,74.80
2023-03-12T08:21:18.707Z,74.70
2023-03-12T08:23:46.369Z,75.10
2023-03-12T08:26:13.700Z,75.50
2023-03-12T08:28:40.880Z,75.40
2023-03-12T08:31:09.802Z,75.50
2023-03-12T08:33:41.301Z,75.60
2023-03-12T08:36:11.175Z,76.30
2023-03-12T08:38:38.280Z,76.80
2023-03-12T08:41:05.510Z,77.60
2023-03-12T08:43:32.610Z,78.20
2023-03-12T08:46:01.866Z,79.00
2023-03-12T08:48:31.168Z,79.70
2023-03-12T08:51:00.010Z,80.60
2023-03-12T08:53:27.907Z,81.40
2023-03-12T08:55:55.992Z,82.00
2023-03-12T08:58:25.438Z,82.50
2023-03-12T09:00:55.921Z,82.80
2023-03-12T09:03:23.675Z,83.00
2023-03-12T09:05:51.422Z,83.50
2023-03-12T09:08:18.658Z,83.70
2023-03-12T09:10:50.257Z,84.00
2023-03-12T09:13:19.461Z,84.10
2023-03-12T09:15:48.804Z,84.30
2023-03-12T09:18:16.609Z,84.80
2023-03-12T09:20:43.919Z,84.90
2023-03-12T09:23:10.690Z,85.30
2023-03-12T09:25:37.576Z,85.90
2023-03-12T09:28:04.640Z,86.50
2023-03-12T09:30:32.390Z,86.30
2023-03-12T09:32:59.311Z,86.50
2023-03-12T09:35:26.503Z,86.50
2023-03-12T09:37:55.929Z,86.70
2023-03-12T09:40:25.916Z,87.10
2023-03-12T09:42:59.068Z,87.30
2023-03-12T09:45:32.739Z,87.20
2023-03-12T09:48:03.109Z,87.50
2023-03-12T09:50:33.542Z,87.60
2023-03-12T09:53:41.323Z,88.00
2023-03-12T09:56:15.041Z,88.20
2023-03-12T09:58:44.797Z,88.50
2023-03-12T10:01:49.733Z,88.90
2023-03-12T10:04:26.950Z,89.00
2023-03-12T10:07:15.731Z,89.10
2023-03-12T10:10:10.859Z,88.40
2023-03-12T10:12:47.721Z,88.40
2023-03-12T10:15:15.455Z,88.80
2023-03-12T10:18:10.773Z,88.30
2023-03-12T10:21:01.588Z,88.30
2023-03-12T10:23:40.053Z,88.40
2023-03-12T10:26:21.404Z,88.60
2023-03-12T10:29:22.357Z,89.40
2023-03-12T10:31:52.573Z,89.80
2023-03-12T10:34:29.307Z,90.00
2023-03-12T10:37:03.098Z,90.00
2023-03-12T10:39:30.303Z,89.80
2023-03-12T10:42:01.051Z,89.60
2023-03-12T10:44:29.152Z,89.70
2023-03-12T10:47:00.192Z,89.40
2023-03-12T10:49:33.235Z,89.80
2023-03-12T10:52:18.034Z,89.90
2023-03-12T10:54:47.260Z,89.80
2023-03-12T10:57:15.949Z,90.20
2023-03-12T10:59:45.453Z,90.20
2023-03-12T11:02:30.903Z,90.50
2023-03-12T11:04:58.967Z,90.70
2023-03-12T11:07:29.252Z,90.60
2023-03-12T11:10:08.790Z,90.30
2023-03-12T11:12:38.065Z,89.90
2023-03-12T11:15:20.978Z,89.50
2023-03-12T11:17:50.317Z,89.50
2023-03-12T11:20:30.520Z,88.10
2023-03-12T11:23:18.111Z,88.70
2023-03-12T11:25:55.837Z,89.70
2023-03-12T11:28:35.001Z,90.10
2023-03-12T11:31:03.457Z,90.00
2023-03-12T11:33:30.797Z,89.90
2023-03-12T11:36:15.674Z,89.50
2023-03-12T11:38:54.255Z,89.50
2023-03-12T11:41:41.831Z,89.40
2023-03-12T11:44:24.193Z,88.90
2023-03-12T11:47:04.529Z,88.60
2023-03-12T11:49:54.117Z,88.30
2023-03-12T11:52:33.319Z,88.50
2023-03-12T11:55:28.513Z,88.70
2023-03-12T11:58:17.001Z,88.70
2023-03-12T12:00:53.016Z,88.70
2023-03-12T12:03:44.554Z,88.10
2023-03-12T12:06:32.587Z,87.80
2023-03-12T12:09:19.968Z,87.00
2023-03-12T12:12:10.569Z,87.10
2023-03-12T12:14:53.421Z,86.50
2023-03-12T12:17:53.788Z,85.30
2023-03-12T12:20:50.873Z,84.40
2023-03-12T12:23:42.296Z,83.40
2023-03-12T12:26:17.118Z,82.80
2023-03-12T12:28:57.029Z,82.40
2023-03-12T12:31:26.868Z,82.20
2023-03-12T12:34:23.868Z,81.00
2023-03-12T12:37:16.783Z,80.20
2023-03-12T12:40:12.781Z,79.70
2023-03-12T12:42:55.617Z,79.20
2023-03-12T12:45:26.723Z,79.20
2023-03-12T12:48:03.518Z,79.30
2023-03-12T12:50:35.326Z,77.50
2023-03-12T12:53:13.929Z,77.60
2023-03-12T12:55:57.329Z,76.80
2023-03-12T12:58:30.205Z,76.10
2023-03-12T13:00:59.298Z,76.60
2023-03-12T13:03:27.344Z,77.50
2023-03-12T13:05:56.761Z,77.10
2023-03-12T13:08:45.172Z,77.30
2023-03-12T13:11:20.086Z,76.80
2023-03-12T13:14:12.377Z,75.50
2023-03-12T13:16:43.973Z,75.20
2023-03-12T13:19:13.926Z,75.30
2023-03-12T13:21:50.804Z,75.40
2023-03-12T13:24:30.228Z,76.50
2023-03-12T13:27:06.138Z,77.00
2023-03-12T13:29:33.201Z,77.80
2023-03-12T13:32:00.370Z,78.70
2023-03-12T13:34:28.229Z,79.70
2023-03-12T13:37:02.581Z,80.50
2023-03-12T13:39:37.340Z,81.20
2023-03-12T13:42:23.280Z,81.30
2023-03-12T13:44:51.995Z,81.70
2023-03-12T13:47:37.488Z,82.30
2023-03-12T13:50:10.997Z,82.80
2023-03-12T13:52:37.911Z,82.90
2023-03-12T13:55:14.310Z,83.50
2023-03-12T13:57:45.950Z,84.10
2023-03-12T14:00:21.253Z,83.90
2023-03-12T14:03:03.568Z,83.70
2023-03-12T14:05:34.731Z,83.60
2023-03-12T14:08:41.008Z,83.30
2023-03-12T14:11:16.543Z,83.00
2023-03-12T14:14:19.108Z,83.00
2023-03-12T14:16:51.631Z,83.20
2023-03-12T14:19:23.176Z,83.50
2023-03-12T14:21:52.320Z,83.90
2023-03-12T14:24:43.719Z,84.10
2023-03-12T14:27:32.388Z,84.20
2023-03-12T14:30:04.342Z,84.20
2023-03-12T14:32:34.892Z,84.20
2023-03-12T14:35:14.698Z,84.50
2023-03-12T14:37:49.563Z,84.60
2023-03-12T14:40:30.148Z,84.50
2023-03-12T14:43:02.442Z,84.80
2023-03-12T14:45:30.425Z,85.10
2023-03-12T14:47:59.064Z,85.50
2023-03-12T14:50:41.972Z,85.70
2023-03-12T14:53:39.854Z,86.00
2023-03-12T14:56:09.330Z,86.10
2023-03-12T14:58:44.080Z,86.20
2023-03-12T15:01:16.724Z,86.40
2023-03-12T15:03:51.743Z,86.70
2023-03-12T15:06:38.064Z,86.70
2023-03-12T15:09:07.848Z,86.60
2023-03-12T15:11:37.666Z,86.50
2023-03-12T15:14:09.292Z,86.30
2023-03-12T15:16:37.695Z,85.90
2023-03-12T15:19:05.351Z,85.60
2023-03-12T15:21:35.397Z,85.40
2023-03-12T15:24:06.663Z,85.10
2023-03-12T15:26:39.163Z,85.00
2023-03-12T15:29:28.734Z,85.10
2023-03-12T15:31:58.846Z,85.00
2023-03-12T15:34:38.159Z,85.10
2023-03-12T15:37:24.802Z,85.10
2023-03-12T15:39:53.365Z,85.20
2023-03-12T15:42:25.222Z,85.10
2023-03-12T15:44:58.147Z,85.10
2023-03-12T15:47:32.384Z,85.10
2023-03-12T15:50:52.371Z,85.20
2023-03-12T15:53:19.496Z,85.70
2023-03-12T15:56:25.347Z,86.00
2023-03-12T15:59:17.302Z,86.30
2023-03-12T16:01:52.007Z,86.50
2023-03-12T16:04:20.246Z,87.20
2023-03-12T16:06:49.122Z,86.80
2023-03-12T16:09:27.301Z,86.90
2023-03-12T16:11:55.903Z,87.20
2023-03-12T16:14:30.389Z,87.40
2023-03-12T16:16:57.382Z,87.50
2023-03-12T16:19:28.388Z,87.60
2023-03-12T16:21:57.847Z,88.20
2023-03-12T16:24:25.049Z,87.70
2023-03-12T16:26:55.751Z,87.80
2023-03-12T16:29:26.483Z,87.70
2023-03-12T16:31:56.136Z,87.70
2023-03-12T16:34:25.297Z,87.80
2023-03-12T16:36:52.217Z,87.90
2023-03-12T16:39:19.513Z,88.00
2023-03-12T16:41:47.507Z,88.10
2023-03-12T16:44:18.834Z,88.20
2023-03-12T16:46:46.804Z,88.30
2023-03-12T16:49:18.373Z,88.40
2023-03-12T16:51:48.320Z,88.30
2023-03-12T16:54:15.505Z,88.50
2023-03-12T16:56:48.425Z,88.60
2023-03-12T16:59:25.555Z,88.70
2023-03-12T17:01:53.145Z,88.80
2023-03-12T17:04:22.511Z,89.00
2023-03-12T17:06:49.368Z,89.30
2023-03-12T17:09:16.610Z,89.50
2023-03-12T17:11:45.793Z,89.60
2023-03-12T17:14:22.342Z,89.90
2023-03-12T17:16:50.648Z,90.10
2023-03-12T17:19:24.742Z,90.30
2023-03-12T17:21:55.313Z,90.40
2023-03-12T17:24:28.223Z,90.40
2023-03-12T17:26:58.427Z,90.60
2023-03-12T17:29:30.081Z,90.60
2023-03-12T17:32:03.598Z,90.70
2023-03-12T17:34:31.100Z,90.80
2023-03-12T17:36:59.678Z,90.90
2023-03-12T17:39:26.989Z,91.00
2023-03-12T17:42:01.477Z,91.10
2023-03-12T17:44:36.549Z,91.10
2023-03-12T17:47:06.317Z,91.30
2023-03-12T17:49:37.061Z,91.40
2023-03-12T17:52:04.147Z,91.40
2023-03-12T17:54:33.591Z,91.40
2023-03-12T17:57:02.584Z,91.50
2023-03-12T17:59:31.637Z,91.50
2023-03-12T18:02:01.348Z,91.50
2023-03-12T18:04:28.503Z,91.50
2023-03-12T18:06:59.606Z,91.50
2023-03-12T18:09:27.502Z,91.60
2023-03-12T18:11:54.736Z,91.60
2023-03-12T18:14:22.219Z,91.50
2023-03-12T18:16:49.576Z,91.60
2023-03-12T18:19:17.567Z,91.50
2023-03-12T18:21:46.610Z,91.50
2023-03-12T18:24:14.645Z,91.50
2023-03-12T18:26:43.592Z,91.60
2023-03-12T18:29:10.788Z,91.60
2023-03-12T18:31:39.987Z,91.60
2023-03-12T18:34:07.119Z,91.60
2023-03-12T18:36:34.385Z,91.60
2023-03-12T18:39:04.669Z,91.70
2023-03-12T18:41:33.174Z,91.60
2023-03-12T18:44:00.964Z,91.70
2023-03-12T18:46:28.645Z,91.70
2023-03-12T18:48:55.601Z,91.60
2023-03-12T18:51:22.624Z,91.60
2023-03-12T18:53:51.903Z,91.60
2023-03-12T18:56:19.071Z,91.60
2023-03-12T18:58:46.014Z,91.70
2023-03-12T19:01:15.581Z,91.80
2023-03-12T19:03:42.904Z,91.80
2023-03-12T19:06:13.200Z,91.90
2023-03-12T19:08:42.083Z,91.90
2023-03-12T19:11:14.246Z,91.80
2023-03-12T19:13:41.783Z,92.00
2023-03-12T19:16:10.336Z,91.70
2023-03-12T19:18:39.377Z,91.70
2023-03-12T19:21:13.636Z,91.80
2023-03-12T19:23:40.904Z,91.70
2023-03-12T19:26:15.986Z,91.60
2023-03-12T19:28:43.221Z,91.60
2023-03-12T19:31:13.082Z,91.50
2023-03-12T19:33:40.043Z,91.50
2023-03-12T19:36:08.046Z,91.50
2023-03-12T19:38:34.983Z,91.50
2023-03-12T19:41:01.873Z,91.40
2023-03-12T19:43:28.871Z,91.40
2023-03-12T19:45:58.011Z,91.40
2023-03-12T19:48:28.006Z,91.00
2023-03-12T19:50:56.245Z,90.90
2023-03-12T19:53:25.709Z,90.60
2023-03-12T19:55:52.954Z,90.20
2023-03-12T19:58:20.001Z,90.10
2023-03-12T20:00:48.695Z,90.00
2023-03-12T20:03:17.346Z,89.70
2023-03-12T20:05:47.010Z,89.40
2023-03-12T20:08:13.895Z,89.20
2023-03-12T20:10:41.051Z,89.40
2023-03-12T20:13:13.424Z,89.50
2023-03-12T20:15:47.458Z,89.20
2023-03-12T20:18:15.659Z,88.50
2023-03-12T20:20:43.723Z,88.40
2023-03-12T20:23:15.301Z,88.40
2023-03-12T20:25:51.777Z,88.40
2023-03-12T20:28:19.428Z,88.20
2023-03-12T20:30:46.549Z,88.10
2023-03-12T20:33:16.796Z,87.90
2023-03-12T20:35:47.213Z,87.40
2023-03-12T20:38:16.804Z,87.40
2023-03-12T20:40:47.619Z,87.20
2023-03-12T20:43:16.025Z,87.20
2023-03-12T20:45:47.763Z,87.30
2023-03-12T20:48:14.911Z,87.50
2023-03-12T20:50:43.285Z,87.70
2023-03-12T20:53:13.286Z,87.80
2023-03-12T20:55:47.095Z,88.10
2023-03-12T20:58:15.266Z,88.30
2023-03-12T21:00:44.548Z,88.70
2023-03-12T21:03:19.621Z,88.80
2023-03-12T21:05:57.761Z,89.20
2023-03-12T21:08:27.081Z,89.80
2023-03-12T21:10:54.335Z,90.10
2023-03-12T21:13:23.980Z,90.10
2023-03-12T21:15:53.757Z,90.10
2023-03-12T21:18:20.691Z,90.10
2023-03-12T21:20:52.215Z,90.10
2023-03-12T21:23:22.597Z,90.00
2023-03-12T21:26:00.257Z,90.00
2023-03-12T21:28:29.052Z,90.10
2023-03-12T21:31:07.779Z,90.30
2023-03-12T21:33:35.520Z,90.40
2023-03-12T21:36:10.336Z,90.30
2023-03-12T21:38:40.235Z,90.20
2023-03-12T21:41:10.384Z,90.20
2023-03-12T21:43:40.608Z,90.30
2023-03-12T21:46:09.775Z,90.40
2023-03-12T21:48:40.530Z,90.30
2023-03-12T21:51:09.630Z,90.40
2023-03-12T21:53:38.255Z,90.40
2023-03-12T21:56:08.559Z,90.30
2023-03-12T21:58:38.536Z,90.30
2023-03-12T22:01:09.141Z,90.20
2023-03-12T22:03:41.277Z,90.00
2023-03-12T22:06:14.139Z,90.00
2023-03-12T22:08:44.210Z,89.80
2023-03-12T22:11:13.958Z,89.70
2023-03-12T22:13:44.631Z,89.30
2023-03-12T22:16:18.857Z,89.30
2023-03-12T22:18:47.009Z,88.90
2023-03-12T22:21:16.867Z,88.50
2023-03-12T22:23:48.219Z,88.10
2023-03-12T22:26:15.957Z,87.90
2023-03-12T22:28:48.120Z,87.70
2023-03-12T22:31:16.125Z,87.30
2023-03-12T22:33:46.643Z,87.20
2023-03-12T22:36:16.111Z,86.90
2023-03-12T22:38:44.425Z,86.70
2023-03-12T22:41:39.322Z,86.30
2023-03-12T22:44:12.656Z,86.30
2023-03-12T22:46:44.980Z,86.20
2023-03-12T22:49:12.581Z,86.20
2023-03-12T22:51:39.840Z,86.30
2023-03-12T22:54:08.916Z,86.60
2023-03-12T22:56:37.103Z,86.70
2023-03-12T22:59:08.033Z,86.80
2023-03-12T23:01:35.714Z,86.70
2023-03-12T23:04:04.351Z,86.70
2023-03-12T23:06:35.095Z,86.70
2023-03-12T23:09:07.161Z,86.80
2023-03-12T23:11:36.923Z,86.70
2023-03-12T23:14:04.472Z,86.80
2023-03-12T23:16:31.653Z,87.00
2023-03-12T23:18:59.794Z,87.00
2023-03-12T23:21:27.128Z,87.00
2023-03-12T23:23:57.424Z,87.10
2023-03-12T23:26:27.002Z,87.00
2023-03-12T23:28:58.963Z,87.00
2023-03-12T23:31:30.187Z,86.70
2023-03-12T23:33:58.792Z,87.00
2023-03-12T23:36:28.837Z,86.70
2023-03-12T23:39:01.214Z,86.60
2023-03-12T23:41:35.307Z,86.80
2023-03-12T23:44:02.924Z,86.80
2023-03-12T23:46:32.867Z,87.00
2023-03-12T23:49:02.286Z,86.90
2023-03-12T23:51:37.249Z,86.90
2023-03-12T23:54:05.765Z,87.00
2023-03-12T23:56:35.629Z,86.90
2023-03-12T23:59:07.262Z,86.80
